createdAt,value
2023-03-29T00:00:19.012Z,21.27
2023-03-29T00:01:35.613Z,21.24
2023-03-29T00:02:41.798Z,21.27
2023-03-29T00:03:47.752Z,21.28
2023-03-29T00:04:53.403Z,21.25
2023-03-29T00:05:58.814Z,21.24
2023-03-29T00:07:04.483Z,21.23
2023-03-29T00:08:10.010Z,21.22
2023-03-29T00:09:15.365Z,21.23
2023-03-29T00:10:20.740Z,21.23
2023-03-29T00:11:26.115Z,21.25
2023-03-29T00:12:31.589Z,21.23
2023-03-29T00:13:36.978Z,21.25
2023-03-29T00:14:42.354Z,21.27
2023-03-29T00:15:47.767Z,21.25
2023-03-29T00:16:53.189Z,21.23
2023-03-29T00:17:58.764Z,21.25
2023-03-29T00:19:04.271Z,21.24
2023-03-29T00:20:09.687Z,21.22
2023-03-29T00:21:15.064Z,21.22
2023-03-29T00:22:20.468Z,21.24
2023-03-29T00:23:25.852Z,21.22
2023-03-29T00:24:31.275Z,21.25
2023-03-29T00:25:36.658Z,21.22
2023-03-29T00:26:42.034Z,21.21
2023-03-29T00:27:47.413Z,21.2
2023-03-29T00:28:52.857Z,21.2
2023-03-29T00:29:58.395Z,21.21
2023-03-29T00:31:04.143Z,21.22
2023-03-29T00:32:10.020Z,21.2
2023-03-29T00:33:15.410Z,21.19
2023-03-29T00:34:20.795Z,21.2
2023-03-29T00:35:26.179Z,21.18
2023-03-29T00:36:31.672Z,21.19
2023-03-29T00:37:37.101Z,21.19
2023-03-29T00:38:42.503Z,21.18
2023-03-29T00:39:47.911Z,21.2
2023-03-29T00:40:53.289Z,21.19
2023-03-29T00:41:58.667Z,21.18
2023-03-29T00:43:04.030Z,21.18
2023-03-29T00:44:09.401Z,21.16
2023-03-29T00:45:22.262Z,21.16
2023-03-29T00:46:27.685Z,21.15
2023-03-29T00:47:33.373Z,21.16
2023-03-29T00:48:38.963Z,21.17
2023-03-29T00:49:44.338Z,21.17
2023-03-29T00:50:49.734Z,21.18
2023-03-29T00:51:55.089Z,21.18
2023-03-29T00:53:00.477Z,21.16
2023-03-29T00:54:05.880Z,21.18
2023-03-29T00:55:11.263Z,21.16
2023-03-29T00:56:16.643Z,21.15
2023-03-29T00:57:22.054Z,21.15
2023-03-29T00:58:30.330Z,21.13
2023-03-29T00:59:35.736Z,21.17
2023-03-29T01:00:41.193Z,21.14
2023-03-29T01:01:46.615Z,21.13
2023-03-29T01:02:52.218Z,21.12
2023-03-29T01:03:58.250Z,21.11
2023-03-29T01:05:03.807Z,21.11
2023-03-29T01:06:09.174Z,21.11
2023-03-29T01:07:14.582Z,21.1
2023-03-29T01:08:20.057Z,21.11
2023-03-29T01:09:28.499Z,21.11
2023-03-29T01:10:33.908Z,21.1
2023-03-29T01:11:39.321Z,21.09
2023-03-29T01:12:44.767Z,21.09
2023-03-29T01:13:51.220Z,21.08
2023-03-29T01:14:56.695Z,21.09
2023-03-29T01:16:02.122Z,21.09
2023-03-29T01:17:07.670Z,21.08
2023-03-29T01:18:13.027Z,21.08
2023-03-29T01:19:18.496Z,21.1
2023-03-29T01:20:23.852Z,21.1
2023-03-29T01:21:29.222Z,21.09
2023-03-29T01:22:34.597Z,21.1
2023-03-29T01:23:39.999Z,21.1
2023-03-29T01:24:45.380Z,21.09
2023-03-29T01:25:50.835Z,21.08
2023-03-29T01:26:56.223Z,21.08
2023-03-29T01:28:03.948Z,21.06
2023-03-29T01:29:09.327Z,21.07
2023-03-29T01:30:14.766Z,21.07
2023-03-29T01:31:20.143Z,21.07
2023-03-29T01:32:25.698Z,21.07
2023-03-29T01:33:31.218Z,21.07
2023-03-29T01:34:36.594Z,21.07
2023-03-29T01:35:41.992Z,21.07
2023-03-29T01:36:47.500Z,21.06
2023-03-29T01:37:52.890Z,21.06
2023-03-29T01:38:58.289Z,21.06
2023-03-29T01:40:03.686Z,21.06
2023-03-29T01:41:09.111Z,21.05
2023-03-29T01:42:14.485Z,21.05
2023-03-29T01:43:19.872Z,21.05
2023-03-29T01:44:25.280Z,21.06
2023-03-29T01:45:30.652Z,21.06
2023-03-29T01:46:38.386Z,21.06
2023-03-29T01:47:43.871Z,21.06
2023-03-29T01:48:49.396Z,21.05
2023-03-29T01:49:54.793Z,21.05
2023-03-29T01:51:00.353Z,21.06
2023-03-29T01:52:06.500Z,21.06
2023-03-29T01:53:11.868Z,21.05
2023-03-29T01:54:17.240Z,21.04
2023-03-29T01:55:22.648Z,21.05
2023-03-29T01:56:28.096Z,21.05
2023-03-29T01:57:33.503Z,21.05
2023-03-29T01:58:39.157Z,21.04
2023-03-29T01:59:44.526Z,21.05
2023-03-29T02:00:49.914Z,21.04
2023-03-29T02:01:55.321Z,21.06
2023-03-29T02:03:00.960Z,21.04
2023-03-29T02:04:06.693Z,21.04
2023-03-29T02:05:12.071Z,21.04
2023-03-29T02:06:17.439Z,21.03
2023-03-29T02:07:22.824Z,21.05
2023-03-29T02:08:28.200Z,21.04
2023-03-29T02:09:33.688Z,21.03
2023-03-29T02:10:39.120Z,21.07
2023-03-29T02:11:44.550Z,21.07
2023-03-29T02:12:50.040Z,21.05
2023-03-29T02:13:57.776Z,21.04
2023-03-29T02:15:03.182Z,21.05
2023-03-29T02:16:08.621Z,21.04
2023-03-29T02:17:15.329Z,21.04
2023-03-29T02:18:20.704Z,21.02
2023-03-29T02:19:26.079Z,21.01
2023-03-29T02:20:31.470Z,21.02
2023-03-29T02:21:36.858Z,21.02
2023-03-29T02:22:42.265Z,21
2023-03-29T02:23:47.628Z,21.01
2023-03-29T02:24:53.040Z,21.01
2023-03-29T02:25:58.410Z,21
2023-03-29T02:27:03.801Z,21
2023-03-29T02:28:09.191Z,21
2023-03-29T02:29:14.645Z,21
2023-03-29T02:30:20.021Z,21
2023-03-29T02:31:25.457Z,20.99
2023-03-29T02:32:31.005Z,21
2023-03-29T02:33:36.517Z,20.99
2023-03-29T02:34:42.027Z,20.98
2023-03-29T02:35:47.523Z,20.97
2023-03-29T02:36:53.070Z,20.98
2023-03-29T02:37:58.494Z,20.99
2023-03-29T02:39:03.875Z,21.01
2023-03-29T02:40:09.235Z,21.02
2023-03-29T02:41:14.677Z,21.04
2023-03-29T02:42:20.118Z,21.01
2023-03-29T02:43:26.046Z,21.01
2023-03-29T02:44:31.570Z,20.98
2023-03-29T02:45:37.010Z,20.98
2023-03-29T02:46:42.453Z,20.98
2023-03-29T02:47:48.149Z,20.96
2023-03-29T02:48:53.764Z,20.97
2023-03-29T02:49:59.174Z,20.97
2023-03-29T02:51:04.681Z,20.97
2023-03-29T02:52:10.104Z,21.05
2023-03-29T02:53:15.527Z,21.08
2023-03-29T02:54:20.945Z,21.08
2023-03-29T02:55:26.337Z,21.06
2023-03-29T02:56:31.808Z,21.08
2023-03-29T02:57:37.182Z,21.11
2023-03-29T02:58:43.601Z,21.11
2023-03-29T02:59:48.994Z,21.08
2023-03-29T03:00:54.427Z,21.03
2023-03-29T03:01:59.848Z,21.05
2023-03-29T03:03:05.445Z,21.07
2023-03-29T03:04:11.230Z,21.06
2023-03-29T03:05:16.787Z,21.08
2023-03-29T03:06:22.286Z,21.05
2023-03-29T03:07:27.633Z,21.08
2023-03-29T03:08:32.991Z,21.04
2023-03-29T03:09:38.412Z,21.03
2023-03-29T03:10:43.884Z,21.01
2023-03-29T03:11:49.269Z,21.02
2023-03-29T03:12:54.622Z,21.01
2023-03-29T03:14:00.041Z,21.01
2023-03-29T03:15:05.426Z,21.04
2023-03-29T03:16:10.854Z,21.02
2023-03-29T03:17:16.423Z,20.99
2023-03-29T03:18:21.797Z,20.99
2023-03-29T03:19:27.439Z,20.97
2023-03-29T03:20:32.791Z,20.96
2023-03-29T03:21:38.177Z,20.97
2023-03-29T03:22:43.567Z,20.97
2023-03-29T03:23:48.967Z,21
2023-03-29T03:24:54.429Z,21.02
2023-03-29T03:25:59.808Z,21.03
2023-03-29T03:27:05.192Z,21.01
2023-03-29T03:28:10.630Z,20.99
2023-03-29T03:29:15.981Z,20.99
2023-03-29T03:30:21.384Z,20.99
2023-03-29T03:31:26.806Z,20.99
2023-03-29T03:32:32.361Z,21
2023-03-29T03:33:37.840Z,20.99
2023-03-29T03:34:43.214Z,20.99
2023-03-29T03:35:48.651Z,20.99
2023-03-29T03:36:54.251Z,20.97
2023-03-29T03:37:59.647Z,20.98
2023-03-29T03:39:06.065Z,21.04
2023-03-29T03:40:11.476Z,21.03
2023-03-29T03:41:16.941Z,21.05
2023-03-29T03:42:22.298Z,21.03
2023-03-29T03:43:27.690Z,21.02
2023-03-29T03:44:33.091Z,21.01
2023-03-29T03:45:38.449Z,21.02
2023-03-29T03:46:43.964Z,21.03
2023-03-29T03:47:49.380Z,21.01
2023-03-29T03:48:54.890Z,21.01
2023-03-29T03:50:00.262Z,21.02
2023-03-29T03:51:05.711Z,21.03
2023-03-29T03:52:11.197Z,21.03
2023-03-29T03:53:16.582Z,21.03
2023-03-29T03:54:21.982Z,21.04
2023-03-29T03:55:27.374Z,21.07
2023-03-29T03:56:32.775Z,21.13
2023-03-29T03:57:38.214Z,21.13
2023-03-29T03:58:43.644Z,21.09
2023-03-29T03:59:49.074Z,21.05
2023-03-29T04:00:54.437Z,21
2023-03-29T04:01:59.968Z,20.96
2023-03-29T04:03:05.592Z,20.94
2023-03-29T04:04:11.654Z,20.94
2023-03-29T04:05:17.283Z,20.95
2023-03-29T04:06:22.714Z,20.95
2023-03-29T04:07:28.166Z,21.06
2023-03-29T04:08:33.592Z,21.12
2023-03-29T04:09:38.970Z,21.21
2023-03-29T04:10:44.363Z,21.24
2023-03-29T04:11:49.761Z,21.32
2023-03-29T04:12:55.137Z,21.39
2023-03-29T04:14:00.503Z,21.49
2023-03-29T04:15:05.912Z,21.6
2023-03-29T04:16:11.375Z,21.73
2023-03-29T04:17:16.988Z,21.85
2023-03-29T04:18:22.463Z,21.94
2023-03-29T04:19:28.150Z,22.02
2023-03-29T04:20:33.558Z,22.13
2023-03-29T04:21:39.059Z,22.18
2023-03-29T04:22:44.456Z,22.25
2023-03-29T04:23:49.853Z,22.29
2023-03-29T04:24:55.262Z,22.33
2023-03-29T04:26:00.651Z,22.37
2023-03-29T04:27:06.063Z,22.38
2023-03-29T04:28:11.465Z,22.4
2023-03-29T04:29:16.825Z,22.45
2023-03-29T04:30:25.438Z,22.45
2023-03-29T04:31:30.857Z,22.47
2023-03-29T04:32:36.440Z,22.47
2023-03-29T04:33:42.198Z,22.46
2023-03-29T04:34:47.624Z,22.45
2023-03-29T04:35:53.033Z,22.44
2023-03-29T04:36:58.534Z,22.42
2023-03-29T04:38:03.896Z,22.44
2023-03-29T04:39:09.280Z,22.39
2023-03-29T04:40:14.674Z,22.36
2023-03-29T04:41:20.079Z,22.36
2023-03-29T04:42:25.492Z,22.32
2023-03-29T04:43:30.903Z,22.32
2023-03-29T04:44:36.270Z,22.29
2023-03-29T04:45:41.668Z,22.25
2023-03-29T04:46:47.123Z,22.23
2023-03-29T04:47:52.837Z,22.19
2023-03-29T04:48:58.317Z,22.17
2023-03-29T04:50:03.672Z,22.16
2023-03-29T04:51:09.133Z,22.17
2023-03-29T04:52:14.494Z,22.14
2023-03-29T04:53:19.877Z,22.1
2023-03-29T04:54:27.525Z,22.06
2023-03-29T04:55:32.916Z,22.04
2023-03-29T04:56:38.348Z,22.04
2023-03-29T04:57:43.803Z,22.01
2023-03-29T04:58:49.189Z,21.99
2023-03-29T04:59:54.586Z,21.96
2023-03-29T05:01:00.069Z,21.92
2023-03-29T05:02:06.076Z,21.9
2023-03-29T05:03:11.840Z,21.86
2023-03-29T05:04:17.399Z,21.86
2023-03-29T05:05:22.955Z,21.84
2023-03-29T05:06:29.410Z,21.82
2023-03-29T05:07:34.779Z,21.81
2023-03-29T05:08:40.160Z,21.79
2023-03-29T05:09:45.582Z,21.77
2023-03-29T05:10:50.952Z,21.76
2023-03-29T05:11:56.336Z,21.75
2023-03-29T05:13:01.783Z,21.74
2023-03-29T05:14:07.211Z,21.75
2023-03-29T05:15:12.633Z,21.73
2023-03-29T05:16:18.055Z,21.71
2023-03-29T05:17:23.651Z,21.69
2023-03-29T05:18:29.177Z,21.69
2023-03-29T05:19:34.686Z,21.66
2023-03-29T05:20:40.113Z,21.66
2023-03-29T05:21:45.697Z,21.64
2023-03-29T05:22:51.161Z,21.62
2023-03-29T05:23:56.553Z,21.62
2023-03-29T05:25:01.954Z,21.57
2023-03-29T05:26:07.341Z,21.54
2023-03-29T05:27:12.803Z,21.53
2023-03-29T05:28:18.250Z,21.51
2023-03-29T05:29:23.600Z,21.52
2023-03-29T05:30:28.978Z,21.5
2023-03-29T05:31:34.438Z,21.48
2023-03-29T05:32:40.116Z,21.49
2023-03-29T05:33:45.702Z,21.48
2023-03-29T05:34:51.049Z,21.45
2023-03-29T05:35:56.576Z,21.45
2023-03-29T05:37:02.053Z,21.45
2023-03-29T05:38:07.638Z,21.44
2023-03-29T05:39:13.030Z,21.44
2023-03-29T05:40:18.413Z,21.44
2023-03-29T05:41:23.821Z,21.45
2023-03-29T05:42:29.219Z,21.43
2023-03-29T05:43:34.643Z,21.44
2023-03-29T05:44:40.007Z,21.44
2023-03-29T05:45:45.485Z,21.45
2023-03-29T05:46:51.025Z,21.47
2023-03-29T05:47:56.462Z,21.49
2023-03-29T05:49:02.044Z,21.48
2023-03-29T05:50:07.428Z,21.5
2023-03-29T05:51:12.835Z,21.5
2023-03-29T05:52:18.269Z,21.52
2023-03-29T05:53:23.689Z,21.53
2023-03-29T05:54:29.125Z,21.55
2023-03-29T05:55:34.542Z,21.55
2023-03-29T05:56:39.965Z,21.53
2023-03-29T05:57:45.521Z,21.52
2023-03-29T05:58:51.855Z,21.54
2023-03-29T05:59:59.300Z,21.52
2023-03-29T06:01:04.992Z,21.52
2023-03-29T06:02:10.522Z,21.5
2023-03-29T06:04:26.034Z,21.5
2023-03-29T06:05:31.794Z,21.52
2023-03-29T06:06:37.179Z,21.51
2023-03-29T06:07:42.581Z,21.47
2023-03-29T06:08:47.960Z,21.46
2023-03-29T06:09:53.406Z,21.45
2023-03-29T06:10:58.832Z,21.45
2023-03-29T06:12:07.908Z,21.47
2023-03-29T06:13:13.280Z,21.47
2023-03-29T06:14:18.662Z,21.46
2023-03-29T06:15:24.068Z,21.45
2023-03-29T06:16:29.474Z,21.47
2023-03-29T06:17:34.981Z,21.44
2023-03-29T06:18:40.502Z,21.44
2023-03-29T06:19:45.886Z,21.43
2023-03-29T06:20:51.496Z,21.42
2023-03-29T06:21:56.909Z,21.41
2023-03-29T06:23:02.283Z,21.41
2023-03-29T06:24:07.679Z,21.42
2023-03-29T06:25:13.211Z,21.42
2023-03-29T06:26:18.616Z,21.42
2023-03-29T06:27:23.993Z,21.44
2023-03-29T06:28:29.359Z,21.43
2023-03-29T06:29:34.726Z,21.45
2023-03-29T06:30:40.126Z,21.4
2023-03-29T06:31:45.900Z,21.38
2023-03-29T06:32:51.501Z,21.38
2023-03-29T06:33:57.293Z,21.36
2023-03-29T06:35:02.669Z,21.37
2023-03-29T06:36:08.075Z,21.37
2023-03-29T06:37:13.494Z,21.36
2023-03-29T06:38:18.871Z,21.34
2023-03-29T06:39:24.318Z,21.34
2023-03-29T06:40:29.696Z,21.31
2023-03-29T06:41:35.376Z,21.33
2023-03-29T06:42:40.777Z,21.32
2023-03-29T06:43:46.136Z,21.32
2023-03-29T06:44:51.542Z,21.32
2023-03-29T06:45:56.924Z,21.3
2023-03-29T06:47:02.415Z,21.3
2023-03-29T06:48:08.129Z,21.31
2023-03-29T06:49:13.725Z,21.31
2023-03-29T06:50:19.121Z,21.31
2023-03-29T06:51:24.494Z,21.31
2023-03-29T06:52:29.889Z,21.32
2023-03-29T06:53:35.253Z,21.35
2023-03-29T06:54:40.670Z,21.39
2023-03-29T06:55:46.053Z,21.4
2023-03-29T06:56:51.561Z,21.42
2023-03-29T06:57:57.591Z,21.44
2023-03-29T06:59:06.758Z,21.45
2023-03-29T07:00:12.150Z,21.45
2023-03-29T07:01:17.567Z,21.46
2023-03-29T07:02:23.149Z,21.47
2023-03-29T07:03:28.659Z,21.47
2023-03-29T07:04:34.177Z,21.47
2023-03-29T07:05:39.639Z,21.47
2023-03-29T07:06:45.036Z,21.48
2023-03-29T07:07:50.460Z,21.49
2023-03-29T07:08:56.038Z,21.5
2023-03-29T07:10:01.431Z,21.49
2023-03-29T07:11:06.841Z,21.5
2023-03-29T07:12:12.232Z,21.48
2023-03-29T07:13:17.655Z,21.49
2023-03-29T07:14:23.070Z,21.49
2023-03-29T07:15:28.636Z,21.51
2023-03-29T07:16:34.055Z,21.5
2023-03-29T07:17:39.814Z,21.51
2023-03-29T07:18:45.333Z,21.51
2023-03-29T07:19:50.767Z,21.51
2023-03-29T07:20:56.115Z,21.5
2023-03-29T07:22:01.554Z,21.53
2023-03-29T07:23:06.917Z,21.48
2023-03-29T07:24:12.515Z,21.45
2023-03-29T07:25:17.919Z,21.43
2023-03-29T07:26:28.498Z,21.42
2023-03-29T07:27:35.573Z,21.41
2023-03-29T07:28:40.970Z,21.43
2023-03-29T07:29:46.464Z,21.43
2023-03-29T07:30:51.867Z,21.41
2023-03-29T07:31:57.262Z,21.41
2023-03-29T07:33:02.706Z,21.37
2023-03-29T07:34:08.701Z,21.38
2023-03-29T07:35:14.105Z,21.37
2023-03-29T07:36:19.491Z,21.35
2023-03-29T07:37:25.020Z,21.37
2023-03-29T07:38:30.401Z,21.35
2023-03-29T07:39:35.776Z,21.35
2023-03-29T07:40:41.183Z,21.32
2023-03-29T07:41:46.558Z,21.32
2023-03-29T07:42:52.067Z,21.31
2023-03-29T07:43:57.480Z,21.33
2023-03-29T07:45:05.284Z,21.3
2023-03-29T07:46:11.726Z,21.28
2023-03-29T07:47:17.237Z,21.3
2023-03-29T07:48:22.619Z,21.28
2023-03-29T07:49:28.003Z,21.3
2023-03-29T07:50:33.398Z,21.28
2023-03-29T07:51:38.829Z,21.28
2023-03-29T07:52:44.178Z,21.25
2023-03-29T07:53:49.558Z,21.28
2023-03-29T07:54:55.122Z,21.27
2023-03-29T07:56:00.611Z,21.23
2023-03-29T07:57:06.039Z,21.28
2023-03-29T07:58:11.590Z,21.25
2023-03-29T07:59:17.136Z,21.26
2023-03-29T08:00:22.744Z,21.24
2023-03-29T08:01:28.377Z,21.27
2023-03-29T08:02:33.909Z,21.29
2023-03-29T08:03:39.426Z,21.28
2023-03-29T08:04:45.023Z,21.24
2023-03-29T08:05:50.538Z,21.23
2023-03-29T08:06:55.947Z,21.22
2023-03-29T08:08:01.357Z,21.2
2023-03-29T08:09:06.717Z,21.2
2023-03-29T08:10:12.258Z,21.23
2023-03-29T08:11:17.649Z,21.25
2023-03-29T08:12:24.937Z,21.27
2023-03-29T08:13:30.397Z,21.29
2023-03-29T08:14:35.756Z,21.27
2023-03-29T08:15:41.130Z,21.29
2023-03-29T08:16:46.536Z,21.24
2023-03-29T08:17:52.167Z,21.22
2023-03-29T08:18:57.817Z,21.21
2023-03-29T08:20:03.179Z,21.21
2023-03-29T08:21:08.624Z,21.22
2023-03-29T08:22:13.979Z,21.23
2023-03-29T08:23:19.362Z,21.23
2023-03-29T08:24:24.735Z,21.21
2023-03-29T08:25:30.115Z,21.21
2023-03-29T08:26:35.492Z,21.2
2023-03-29T08:27:40.874Z,21.22
2023-03-29T08:28:46.301Z,21.21
2023-03-29T08:29:51.714Z,21.21
2023-03-29T08:30:57.186Z,21.2
2023-03-29T08:32:03.005Z,21.19
2023-03-29T08:33:08.477Z,21.18
2023-03-29T08:34:14.003Z,21.2
2023-03-29T08:35:19.392Z,21.19
2023-03-29T08:36:24.796Z,21.19
2023-03-29T08:37:30.172Z,21.17
2023-03-29T08:38:35.593Z,21.13
2023-03-29T08:39:40.981Z,21.04
2023-03-29T08:40:46.389Z,21.01
2023-03-29T08:41:51.783Z,21.01
2023-03-29T08:42:57.168Z,20.91
2023-03-29T08:44:02.550Z,20.86
2023-03-29T08:45:08.037Z,20.86
2023-03-29T08:46:13.503Z,20.82
2023-03-29T08:47:19.024Z,20.82
2023-03-29T08:48:24.704Z,20.91
2023-03-29T08:49:30.081Z,20.98
2023-03-29T08:50:35.448Z,21.04
2023-03-29T08:51:40.849Z,21.12
2023-03-29T08:52:46.293Z,21.19
2023-03-29T08:53:51.680Z,21.22
2023-03-29T08:54:57.079Z,21.26
2023-03-29T08:56:02.479Z,21.28
2023-03-29T08:57:07.910Z,21.33
2023-03-29T08:58:13.451Z,21.34
2023-03-29T08:59:18.822Z,21.34
2023-03-29T09:00:24.190Z,21.35
2023-03-29T09:01:29.584Z,21.36
2023-03-29T09:02:35.136Z,21.36
2023-03-29T09:03:41.016Z,21.36
2023-03-29T09:04:46.763Z,21.36
2023-03-29T09:05:52.262Z,21.37
2023-03-29T09:06:57.633Z,21.38
2023-03-29T09:08:03.012Z,21.38
2023-03-29T09:09:08.420Z,21.37
2023-03-29T09:10:13.764Z,21.38
2023-03-29T09:11:19.131Z,21.38
2023-03-29T09:12:25.504Z,21.39
2023-03-29T09:13:30.907Z,21.4
2023-03-29T09:14:36.586Z,21.4
2023-03-29T09:15:41.962Z,21.39
2023-03-29T09:16:47.415Z,21.38
2023-03-29T09:17:52.896Z,21.37
2023-03-29T09:18:58.450Z,21.37
2023-03-29T09:20:03.828Z,21.38
2023-03-29T09:21:09.466Z,21.36
2023-03-29T09:22:14.848Z,21.38
2023-03-29T09:23:20.300Z,21.38
2023-03-29T09:24:25.669Z,21.38
2023-03-29T09:25:32.986Z,21.38
2023-03-29T09:26:56.586Z,21.37
2023-03-29T09:28:01.995Z,21.37
2023-03-29T09:29:09.513Z,21.34
2023-03-29T09:30:15.008Z,21.3
2023-03-29T09:31:20.465Z,21.3
2023-03-29T09:32:26.054Z,21.3
2023-03-29T09:33:31.595Z,21.3
2023-03-29T09:34:37.022Z,21.28
2023-03-29T09:35:42.496Z,21.28
2023-03-29T09:36:48.026Z,21.26
2023-03-29T09:37:53.390Z,21.27
2023-03-29T09:38:58.802Z,21.26
2023-03-29T09:40:05.249Z,21.26
2023-03-29T09:41:10.889Z,21.25
2023-03-29T09:42:16.240Z,21.25
2023-03-29T09:43:21.610Z,21.23
2023-03-29T09:44:31.105Z,21.23
2023-03-29T09:45:36.982Z,21.25
2023-03-29T09:46:42.580Z,21.22
2023-03-29T09:47:48.028Z,21.23
2023-03-29T09:48:53.526Z,21.21
2023-03-29T09:49:58.915Z,21.21
2023-03-29T09:51:04.472Z,21.19
2023-03-29T09:52:09.981Z,21.19
2023-03-29T09:53:15.357Z,21.2
2023-03-29T09:54:20.768Z,21.2
2023-03-29T09:55:26.158Z,21.17
2023-03-29T09:56:32.286Z,21.17
2023-03-29T09:57:37.641Z,21.16
2023-03-29T09:58:43.033Z,21.17
2023-03-29T09:59:48.705Z,21.15
2023-03-29T10:00:54.108Z,21.14
2023-03-29T10:01:59.709Z,21.12
2023-03-29T10:03:05.098Z,21.11
2023-03-29T10:04:14.133Z,21.12
2023-03-29T10:05:19.715Z,21.12
2023-03-29T10:06:25.101Z,21.12
2023-03-29T10:07:30.504Z,21.09
2023-03-29T10:08:35.867Z,21.1
2023-03-29T10:09:41.402Z,21.08
2023-03-29T10:10:46.786Z,21.13
2023-03-29T10:11:52.172Z,21.11
2023-03-29T10:12:57.649Z,21.08
2023-03-29T10:14:03.034Z,21.1
2023-03-29T10:15:11.784Z,21.09
2023-03-29T10:16:33.759Z,21.09
2023-03-29T10:17:39.474Z,21.09
2023-03-29T10:18:44.995Z,21.07
2023-03-29T10:19:50.370Z,21.09
2023-03-29T10:20:55.833Z,21.11
2023-03-29T10:22:01.240Z,21.11
2023-03-29T10:23:06.632Z,21.1
2023-03-29T10:24:12.087Z,21.09
2023-03-29T10:25:17.466Z,21.07
2023-03-29T10:26:22.937Z,21.08
2023-03-29T10:27:28.658Z,21.07
2023-03-29T10:28:34.050Z,21.07
2023-03-29T10:29:39.433Z,21.06
2023-03-29T10:30:44.826Z,21.09
2023-03-29T10:31:50.315Z,21.09
2023-03-29T10:32:55.979Z,21.08
2023-03-29T10:34:01.685Z,21.07
2023-03-29T10:35:07.082Z,21.06
2023-03-29T10:36:12.491Z,21.08
2023-03-29T10:37:18.024Z,21.14
2023-03-29T10:38:23.614Z,21.19
2023-03-29T10:39:28.977Z,21.24
2023-03-29T10:40:34.355Z,21.3
2023-03-29T10:41:39.737Z,21.32
2023-03-29T10:42:45.140Z,21.35
2023-03-29T10:43:50.573Z,21.4
2023-03-29T10:44:55.967Z,21.43
2023-03-29T10:46:01.407Z,21.46
2023-03-29T10:47:06.842Z,21.51
2023-03-29T10:48:12.240Z,21.52
2023-03-29T10:49:17.638Z,21.54
2023-03-29T10:50:23.277Z,21.56
2023-03-29T10:51:28.638Z,21.57
2023-03-29T10:52:34.045Z,21.57
2023-03-29T10:53:39.449Z,21.56
2023-03-29T10:54:44.837Z,21.55
2023-03-29T10:55:50.236Z,21.55
2023-03-29T10:56:55.668Z,21.53
2023-03-29T10:58:01.610Z,21.54
2023-03-29T10:59:06.988Z,21.52
2023-03-29T11:00:12.352Z,21.52
2023-03-29T11:01:17.838Z,21.5
2023-03-29T11:02:23.471Z,21.48
2023-03-29T11:03:29.137Z,21.48
2023-03-29T11:04:35.521Z,21.47
2023-03-29T11:05:41.477Z,21.47
2023-03-29T11:06:46.854Z,21.44
2023-03-29T11:07:52.288Z,21.44
2023-03-29T11:08:57.668Z,21.42
2023-03-29T11:10:03.071Z,21.43
2023-03-29T11:11:08.513Z,21.43
2023-03-29T11:12:15.874Z,21.43
2023-03-29T11:13:22.003Z,21.42
2023-03-29T11:14:27.373Z,21.42
2023-03-29T11:15:32.783Z,21.4
2023-03-29T11:16:38.280Z,21.4
2023-03-29T11:17:43.700Z,21.39
2023-03-29T11:18:49.243Z,21.4
2023-03-29T11:19:54.641Z,21.38
2023-03-29T11:21:00.098Z,21.36
2023-03-29T11:22:06.580Z,21.36
2023-03-29T11:23:12.001Z,21.38
2023-03-29T11:24:17.404Z,21.4
2023-03-29T11:25:22.770Z,21.4
2023-03-29T11:26:30.570Z,21.41
2023-03-29T11:27:35.932Z,21.41
2023-03-29T11:28:41.331Z,21.41
2023-03-29T11:29:46.778Z,21.41
2023-03-29T11:30:52.180Z,21.42
2023-03-29T11:31:57.733Z,21.42
2023-03-29T11:33:03.348Z,21.42
2023-03-29T11:34:08.846Z,21.45
2023-03-29T11:35:14.495Z,21.44
2023-03-29T11:36:19.890Z,21.43
2023-03-29T11:37:25.258Z,21.46
2023-03-29T11:38:30.639Z,21.47
2023-03-29T11:39:36.019Z,21.48
2023-03-29T11:40:41.399Z,21.48
2023-03-29T11:41:46.780Z,21.51
2023-03-29T11:42:52.147Z,21.53
2023-03-29T11:43:57.599Z,21.53
2023-03-29T11:45:02.977Z,21.54
2023-03-29T11:46:08.347Z,21.57
2023-03-29T11:47:13.810Z,21.58
2023-03-29T11:48:19.246Z,21.6
2023-03-29T11:49:24.667Z,21.61
2023-03-29T11:50:30.060Z,21.62
2023-03-29T11:51:39.199Z,21.65
2023-03-29T11:52:44.575Z,21.67
2023-03-29T11:53:49.949Z,21.7
2023-03-29T11:54:55.389Z,21.72
2023-03-29T11:56:00.913Z,21.74
2023-03-29T11:57:06.333Z,21.75
2023-03-29T11:58:12.120Z,21.75
2023-03-29T11:59:17.680Z,21.76
2023-03-29T12:00:24.091Z,21.76
2023-03-29T12:01:29.466Z,21.75
2023-03-29T12:02:34.963Z,21.76
2023-03-29T12:03:40.932Z,21.77
2023-03-29T12:04:50.004Z,21.76
2023-03-29T12:05:55.387Z,21.76
2023-03-29T12:07:00.775Z,21.75
2023-03-29T12:08:06.153Z,21.74
2023-03-29T12:09:11.643Z,21.73
2023-03-29T12:10:20.653Z,21.71
2023-03-29T12:11:26.128Z,21.69
2023-03-29T12:12:31.519Z,21.68
2023-03-29T12:13:36.879Z,21.67
2023-03-29T12:14:42.276Z,21.67
2023-03-29T12:15:49.913Z,21.65
2023-03-29T12:16:55.278Z,21.66
2023-03-29T12:18:00.816Z,21.64
2023-03-29T12:19:06.540Z,21.62
2023-03-29T12:20:11.897Z,21.6
2023-03-29T12:21:17.330Z,21.6
2023-03-29T12:22:22.714Z,21.59
2023-03-29T12:23:29.108Z,21.6
2023-03-29T12:24:34.484Z,21.57
2023-03-29T12:25:39.844Z,21.58
2023-03-29T12:26:45.254Z,21.58
2023-03-29T12:27:52.889Z,21.57
2023-03-29T12:28:58.380Z,21.57
2023-03-29T12:30:03.776Z,21.55
2023-03-29T12:31:09.222Z,21.55
2023-03-29T12:32:14.806Z,21.54
2023-03-29T12:33:20.339Z,21.53
2023-03-29T12:34:25.745Z,21.52
2023-03-29T12:35:31.130Z,21.51
2023-03-29T12:36:36.673Z,21.5
2023-03-29T12:37:42.095Z,21.49
2023-03-29T12:38:47.470Z,21.49
2023-03-29T12:39:52.875Z,21.51
2023-03-29T12:40:58.286Z,21.51
2023-03-29T12:42:04.154Z,21.52
2023-03-29T12:43:09.594Z,21.53
2023-03-29T12:44:14.981Z,21.52
2023-03-29T12:45:20.468Z,21.52
2023-03-29T12:46:26.026Z,21.53
2023-03-29T12:47:31.649Z,21.53
2023-03-29T12:48:37.158Z,21.52
2023-03-29T12:49:42.628Z,21.52
2023-03-29T12:50:48.005Z,21.5
2023-03-29T12:51:53.382Z,21.51
2023-03-29T12:52:58.821Z,21.51
2023-03-29T12:54:04.202Z,21.5
2023-03-29T12:55:09.614Z,21.49
2023-03-29T12:56:15.013Z,21.5
2023-03-29T12:57:20.501Z,21.5
2023-03-29T12:58:26.285Z,21.49
2023-03-29T12:59:31.653Z,21.49
2023-03-29T13:00:37.078Z,21.47
2023-03-29T13:01:42.778Z,21.48
2023-03-29T13:02:48.583Z,21.47
2023-03-29T13:03:54.176Z,21.45
2023-03-29T13:04:59.586Z,21.44
2023-03-29T13:06:05.374Z,21.44
2023-03-29T13:07:11.517Z,21.46
2023-03-29T13:08:20.158Z,21.44
2023-03-29T13:09:25.643Z,21.43
2023-03-29T13:10:31.017Z,21.44
2023-03-29T13:11:36.435Z,21.43
2023-03-29T13:12:41.825Z,21.44
2023-03-29T13:13:47.226Z,21.44
2023-03-29T13:14:52.655Z,21.45
2023-03-29T13:15:58.125Z,21.4
2023-03-29T13:17:15.892Z,21.38
2023-03-29T13:18:23.810Z,21.36
2023-03-29T13:19:29.216Z,21.38
2023-03-29T13:20:34.715Z,21.43
2023-03-29T13:21:40.132Z,21.43
2023-03-29T13:22:45.508Z,21.44
2023-03-29T13:23:50.944Z,21.43
2023-03-29T13:24:56.380Z,21.42
2023-03-29T13:26:01.866Z,21.42
2023-03-29T13:27:07.846Z,21.43
2023-03-29T13:28:13.233Z,21.44
2023-03-29T13:29:18.600Z,21.46
2023-03-29T13:30:24.023Z,21.47
2023-03-29T13:31:29.513Z,21.48
2023-03-29T13:32:35.014Z,21.49
2023-03-29T13:33:40.473Z,21.49
2023-03-29T13:34:46.000Z,21.48
2023-03-29T13:35:51.438Z,21.5
2023-03-29T13:36:56.902Z,21.48
2023-03-29T13:38:02.354Z,21.48
2023-03-29T13:39:07.790Z,21.47
2023-03-29T13:40:13.140Z,21.49
2023-03-29T13:41:18.530Z,21.49
2023-03-29T13:42:23.966Z,21.49
2023-03-29T13:43:29.373Z,21.48
2023-03-29T13:44:34.749Z,21.5
2023-03-29T13:45:40.161Z,21.49
2023-03-29T13:46:45.568Z,21.49
2023-03-29T13:48:02.537Z,21.49
2023-03-29T13:49:10.584Z,21.49
2023-03-29T13:50:16.005Z,21.48
2023-03-29T13:51:21.389Z,21.47
2023-03-29T13:52:26.765Z,21.46
2023-03-29T13:53:32.297Z,21.44
2023-03-29T13:54:37.695Z,21.43
2023-03-29T13:55:43.052Z,21.44
2023-03-29T13:56:48.492Z,21.44
2023-03-29T13:57:53.971Z,21.41
2023-03-29T13:58:59.359Z,21.44
2023-03-29T14:00:04.804Z,21.46
2023-03-29T14:01:10.611Z,21.47
2023-03-29T14:02:16.089Z,21.46
2023-03-29T14:03:21.613Z,21.45
2023-03-29T14:04:27.198Z,21.47
2023-03-29T14:05:32.623Z,21.45
2023-03-29T14:06:38.012Z,21.47
2023-03-29T14:07:43.445Z,21.45
2023-03-29T14:08:48.845Z,21.45
2023-03-29T14:09:54.226Z,21.43